sensor_id;sensor_type;location;lat;lon;timestamp;P1;durP1;ratioP1;P2;durP2;ratioP2
19396;SDS011;9834;48.076;11.878;2023-05-10T00:01:59;0.60;;;0.60;;
19396;SDS011;9834;48.076;11.878;2023-05-10T00:04:27;0.50;;;0.50;;
19396;SDS011;9834;48.076;11.878;2023-05-10T00:06:54;2.30;;;0.60;;
19396;SDS011;9834;48.076;11.878;2023-05-10T00:09:23;0.60;;;0.60;;
19396;SDS011;9834;48.076;11.878;2023-05-10T00:11:50;0.70;;;0.70;;
19396;SDS011;9834;48.076;11.878;2023-05-10T00:14:18;0.80;;;0.80;;
19396;SDS011;9834;48.076;11.878;2023-05-10T00:16:45;2.00;;;0.63;;
19396;SDS011;9834;48.076;11.878;2023-05-10T00:19:13;0.67;;;0.53;;
19396;SDS011;9834;48.076;11.878;2023-05-10T00:21:40;0.60;;;0.60;;
19396;SDS011;9834;48.076;11.878;2023-05-10T00:24:07;2.37;;;0.90;;
19396;SDS011;9834;48.076;11.878;2023-05-10T00:26:36;0.50;;;0.50;;
19396;SDS011;9834;48.076;11.878;2023-05-10T00:29:03;0.87;;;0.70;;
19396;SDS011;9834;48.076;11.878;2023-05-10T00:31:31;0.53;;;0.53;;
19396;SDS011;9834;48.076;11.878;2023-05-10T00:33:58;1.00;;;0.90;;
19396;SDS011;9834;48.076;11.878;2023-05-10T00:36:25;0.93;;;0.90;;
19396;SDS011;9834;48.076;11.878;2023-05-10T00:38:53;0.97;;;0.83;;
19396;SDS011;9834;48.076;11.878;2023-05-10T00:41:21;0.70;;;0.60;;
19396;SDS011;9834;48.076;11.878;2023-05-10T00:43:49;3.83;;;0.70;;
19396;SDS011;9834;48.076;11.878;2023-05-10T00:46:17;0.57;;;0.57;;
19396;SDS011;9834;48.076;11.878;2023-05-10T00:48:44;0.93;;;0.80;;
19396;SDS011;9834;48.076;11.878;2023-05-10T00:51:12;0.43;;;0.43;;
19396;SDS011;9834;48.076;11.878;2023-05-10T00:53:40;1.90;;;0.80;;
19396;SDS011;9834;48.076;11.878;2023-05-10T00:56:07;0.73;;;0.67;;
19396;SDS011;9834;48.076;11.878;2023-05-10T00:58:35;0.40;;;0.40;;
19396;SDS011;9834;48.076;11.878;2023-05-10T01:01:04;0.73;;;0.73;;
19396;SDS011;9834;48.076;11.878;2023-05-10T01:03:32;0.40;;;0.40;;
19396;SDS011;9834;48.076;11.878;2023-05-10T01:06:00;0.40;;;0.40;;
19396;SDS011;9834;48.076;11.878;2023-05-10T01:08:27;1.27;;;0.47;;
19396;SDS011;9834;48.076;11.878;2023-05-10T01:10:55;0.40;;;0.40;;
19396;SDS011;9834;48.076;11.878;2023-05-10T01:13:27;1.37;;;0.70;;
19396;SDS011;9834;48.076;11.878;2023-05-10T01:15:58;0.53;;;0.50;;
19396;SDS011;9834;48.076;11.878;2023-05-10T01:18:30;2.20;;;0.70;;
19396;SDS011;9834;48.076;11.878;2023-05-10T01:21:02;0.70;;;0.40;;
19396;SDS011;9834;48.076;11.878;2023-05-10T01:33:14;0.43;;;0.43;;
19396;SDS011;9834;48.076;11.878;2023-05-10T01:35:47;0.40;;;0.40;;
19396;SDS011;9834;48.076;11.878;2023-05-10T01:38:22;0.73;;;0.70;;
19396;SDS011;9834;48.076;11.878;2023-05-10T01:40:59;0.70;;;0.70;;
19396;SDS011;9834;48.076;11.878;2023-05-10T01:43:40;1.40;;;0.60;;
19396;SDS011;9834;48.076;11.878;2023-05-10T01:46:14;1.43;;;0.90;;
19396;SDS011;9834;48.076;11.878;2023-05-10T01:48:48;0.43;;;0.43;;
19396;SDS011;9834;48.076;11.878;2023-05-10T01:51:21;0.83;;;0.50;;
19396;SDS011;9834;48.076;11.878;2023-05-10T01:53:51;0.80;;;0.70;;
19396;SDS011;9834;48.076;11.878;2023-05-10T01:56:25;0.93;;;0.53;;
19396;SDS011;9834;48.076;11.878;2023-05-10T01:58:54;0.60;;;0.60;;
19396;SDS011;9834;48.076;11.878;2023-05-10T02:01:23;0.50;;;0.47;;
19396;SDS011;9834;48.076;11.878;2023-05-10T02:03:53;0.70;;;0.70;;
19396;SDS011;9834;48.076;11.878;2023-05-10T02:06:22;0.40;;;0.40;;
19396;SDS011;9834;48.076;11.878;2023-05-10T02:08:51;0.40;;;0.40;;
19396;SDS011;9834;48.076;11.878;2023-05-10T02:11:20;0.30;;;0.30;;
19396;SDS011;9834;48.076;11.878;2023-05-10T02:13:48;0.30;;;0.30;;
19396;SDS011;9834;48.076;11.878;2023-05-10T02:16:16;0.50;;;0.50;;
19396;SDS011;9834;48.076;11.878;2023-05-10T02:18:49;0.60;;;0.50;;
19396;SDS011;9834;48.076;11.878;2023-05-10T02:21:20;0.40;;;0.40;;
19396;SDS011;9834;48.076;11.878;2023-05-10T02:23:49;1.07;;;0.60;;
19396;SDS011;9834;48.076;11.878;2023-05-10T02:26:18;1.60;;;0.70;;
19396;SDS011;9834;48.076;11.878;2023-05-10T02:28:50;1.03;;;0.63;;
19396;SDS011;9834;48.076;11.878;2023-05-10T02:31:20;0.50;;;0.50;;
19396;SDS011;9834;48.076;11.878;2023-05-10T02:33:48;0.47;;;0.40;;
19396;SDS011;9834;48.076;11.878;2023-05-10T02:36:18;0.47;;;0.43;;
19396;SDS011;9834;48.076;11.878;2023-05-10T02:38:47;0.53;;;0.43;;
19396;SDS011;9834;48.076;11.878;2023-05-10T02:41:18;0.40;;;0.40;;
19396;SDS011;9834;48.076;11.878;2023-05-10T02:43:48;0.30;;;0.30;;
19396;SDS011;9834;48.076;11.878;2023-05-10T02:46:17;2.90;;;0.60;;
19396;SDS011;9834;48.076;11.878;2023-05-10T02:48:44;0.30;;;0.30;;
19396;SDS011;9834;48.076;11.878;2023-05-10T02:51:12;0.40;;;0.40;;
19396;SDS011;9834;48.076;11.878;2023-05-10T02:53:44;0.30;;;0.30;;
19396;SDS011;9834;48.076;11.878;2023-05-10T02:56:13;0.27;;;0.27;;
19396;SDS011;9834;48.076;11.878;2023-05-10T02:58:46;0.30;;;0.30;;
19396;SDS011;9834;48.076;11.878;2023-05-10T03:01:15;0.50;;;0.50;;
19396;SDS011;9834;48.076;11.878;2023-05-10T03:03:43;1.47;;;0.73;;
19396;SDS011;9834;48.076;11.878;2023-05-10T03:06:10;0.90;;;0.47;;
19396;SDS011;9834;48.076;11.878;2023-05-10T03:08:38;0.47;;;0.33;;
19396;SDS011;9834;48.076;11.878;2023-05-10T03:11:12;0.30;;;0.30;;
19396;SDS011;9834;48.076;11.878;2023-05-10T03:13:54;0.43;;;0.43;;
19396;SDS011;9834;48.076;11.878;2023-05-10T03:16:33;0.30;;;0.30;;
19396;SDS011;9834;48.076;11.878;2023-05-10T03:19:11;0.60;;;0.60;;
19396;SDS011;9834;48.076;11.878;2023-05-10T03:21:43;0.87;;;0.40;;
19396;SDS011;9834;48.076;11.878;2023-05-10T03:24:15;0.40;;;0.40;;
19396;SDS011;9834;48.076;11.878;2023-05-10T03:26:47;0.20;;;0.20;;
19396;SDS011;9834;48.076;11.878;2023-05-10T03:29:15;0.40;;;0.40;;
19396;SDS011;9834;48.076;11.878;2023-05-10T03:31:43;0.40;;;0.40;;
19396;SDS011;9834;48.076;11.878;2023-05-10T03:34:10;0.40;;;0.27;;
19396;SDS011;9834;48.076;11.878;2023-05-10T03:36:38;0.30;;;0.30;;
19396;SDS011;9834;48.076;11.878;2023-05-10T03:39:05;0.67;;;0.60;;
19396;SDS011;9834;48.076;11.878;2023-05-10T03:41:33;0.50;;;0.50;;
19396;SDS011;9834;48.076;11.878;2023-05-10T03:44:02;1.03;;;0.47;;
19396;SDS011;9834;48.076;11.878;2023-05-10T03:46:30;0.37;;;0.37;;
19396;SDS011;9834;48.076;11.878;2023-05-10T03:48:57;0.37;;;0.37;;
19396;SDS011;9834;48.076;11.878;2023-05-10T03:51:25;0.33;;;0.33;;
19396;SDS011;9834;48.076;11.878;2023-05-10T03:53:53;0.40;;;0.40;;
19396;SDS011;9834;48.076;11.878;2023-05-10T03:56:20;0.30;;;0.30;;
19396;SDS011;9834;48.076;11.878;2023-05-10T03:58:51;0.40;;;0.40;;
19396;SDS011;9834;48.076;11.878;2023-05-10T04:01:19;0.63;;;0.63;;
19396;SDS011;9834;48.076;11.878;2023-05-10T04:03:47;0.40;;;0.40;;
19396;SDS011;9834;48.076;11.878;2023-05-10T04:06:14;0.40;;;0.40;;
19396;SDS011;9834;48.076;11.878;2023-05-10T04:08:42;0.33;;;0.33;;
19396;SDS011;9834;48.076;11.878;2023-05-10T04:11:10;0.53;;;0.53;;
19396;SDS011;9834;48.076;11.878;2023-05-10T04:13:39;0.30;;;0.30;;
19396;SDS011;9834;48.076;11.878;2023-05-10T04:16:06;0.43;;;0.30;;
19396;SDS011;9834;48.076;11.878;2023-05-10T04:18:35;0.30;;;0.30;;
19396;SDS011;9834;48.076;11.878;2023-05-10T04:21:03;0.27;;;0.27;;
19396;SDS011;9834;48.076;11.878;2023-05-10T04:23:30;0.20;;;0.20;;
19396;SDS011;9834;48.076;11.878;2023-05-10T04:26:00;0.40;;;0.40;;
19396;SDS011;9834;48.076;11.878;2023-05-10T04:28:28;0.40;;;0.40;;
19396;SDS011;9834;48.076;11.878;2023-05-10T04:31:00;0.30;;;0.30;;
19396;SDS011;9834;48.076;11.878;2023-05-10T04:33:27;0.40;;;0.40;;
19396;SDS011;9834;48.076;11.878;2023-05-10T04:35:56;0.20;;;0.20;;
19396;SDS011;9834;48.076;11.878;2023-05-10T04:38:24;0.20;;;0.20;;
19396;SDS011;9834;48.076;11.878;2023-05-10T04:40:52;0.17;;;0.17;;
19396;SDS011;9834;48.076;11.878;2023-05-10T04:43:19;0.37;;;0.37;;
19396;SDS011;9834;48.076;11.878;2023-05-10T04:45:47;0.27;;;0.27;;
19396;SDS011;9834;48.076;11.878;2023-05-10T04:48:15;0.40;;;0.20;;
19396;SDS011;9834;48.076;11.878;2023-05-10T04:50:42;0.20;;;0.20;;
19396;SDS011;9834;48.076;11.878;2023-05-10T04:53:11;0.33;;;0.33;;
19396;SDS011;9834;48.076;11.878;2023-05-10T04:55:39;0.10;;;0.10;;
19396;SDS011;9834;48.076;11.878;2023-05-10T04:58:06;0.30;;;0.30;;
19396;SDS011;9834;48.076;11.878;2023-05-10T05:00:34;0.53;;;0.40;;
19396;SDS011;9834;48.076;11.878;2023-05-10T05:03:01;0.20;;;0.20;;
19396;SDS011;9834;48.076;11.878;2023-05-10T05:05:29;0.43;;;0.33;;
19396;SDS011;9834;48.076;11.878;2023-05-10T05:07:56;0.20;;;0.20;;
19396;SDS011;9834;48.076;11.878;2023-05-10T05:10:25;0.20;;;0.20;;
19396;SDS011;9834;48.076;11.878;2023-05-10T05:12:52;0.20;;;0.20;;
19396;SDS011;9834;48.076;11.878;2023-05-10T05:15:20;0.83;;;0.37;;
19396;SDS011;9834;48.076;11.878;2023-05-10T05:17:47;0.33;;;0.33;;
19396;SDS011;9834;48.076;11.878;2023-05-10T05:20:15;0.30;;;0.30;;
19396;SDS011;9834;48.076;11.878;2023-05-10T05:22:42;0.40;;;0.40;;
19396;SDS011;9834;48.076;11.878;2023-05-10T05:25:09;0.30;;;0.30;;
19396;SDS011;9834;48.076;11.878;2023-05-10T05:27:38;0.50;;;0.50;;
19396;SDS011;9834;48.076;11.878;2023-05-10T05:30:06;0.90;;;0.50;;
19396;SDS011;9834;48.076;11.878;2023-05-10T05:32:34;0.30;;;0.30;;
19396;SDS011;9834;48.076;11.878;2023-05-10T05:35:02;0.40;;;0.40;;
19396;SDS011;9834;48.076;11.878;2023-05-10T05:37:30;0.17;;;0.17;;
19396;SDS011;9834;48.076;11.878;2023-05-10T05:39:57;0.30;;;0.30;;
19396;SDS011;9834;48.076;11.878;2023-05-10T05:42:26;0.40;;;0.40;;
19396;SDS011;9834;48.076;11.878;2023-05-10T05:44:55;0.10;;;0.10;;
19396;SDS011;9834;48.076;11.878;2023-05-10T05:47:23;0.30;;;0.30;;
19396;SDS011;9834;48.076;11.878;2023-05-10T05:49:50;0.20;;;0.20;;
19396;SDS011;9834;48.076;11.878;2023-05-10T05:52:18;0.20;;;0.20;;
19396;SDS011;9834;48.076;11.878;2023-05-10T05:54:46;0.20;;;0.20;;
19396;SDS011;9834;48.076;11.878;2023-05-10T05:57:13;0.47;;;0.40;;
19396;SDS011;9834;48.076;11.878;2023-05-10T05:59:41;1.80;;;0.33;;
19396;SDS011;9834;48.076;11.878;2023-05-10T06:02:10;0.37;;;0.37;;
19396;SDS011;9834;48.076;11.878;2023-05-10T06:04:37;0.30;;;0.30;;
19396;SDS011;9834;48.076;11.878;2023-05-10T06:07:05;0.30;;;0.30;;
19396;SDS011;9834;48.076;11.878;2023-05-10T06:09:32;0.20;;;0.20;;
19396;SDS011;9834;48.076;11.878;2023-05-10T06:11:59;0.30;;;0.30;;
19396;SDS011;9834;48.076;11.878;2023-05-10T06:14:27;1.40;;;0.43;;
19396;SDS011;9834;48.076;11.878;2023-05-10T06:16:55;0.67;;;0.57;;
19396;SDS011;9834;48.076;11.878;2023-05-10T06:19:23;0.30;;;0.30;;
19396;SDS011;9834;48.076;11.878;2023-05-10T06:21:51;0.60;;;0.60;;
19396;SDS011;9834;48.076;11.878;2023-05-10T06:24:18;0.40;;;0.40;;
19396;SDS011;9834;48.076;11.878;2023-05-10T06:26:46;0.90;;;0.63;;
19396;SDS011;9834;48.076;11.878;2023-05-10T06:29:15;0.63;;;0.63;;
19396;SDS011;9834;48.076;11.878;2023-05-10T06:31:42;0.40;;;0.40;;
19396;SDS011;9834;48.076;11.878;2023-05-10T06:34:09;0.27;;;0.27;;
19396;SDS011;9834;48.076;11.878;2023-05-10T06:36:38;0.70;;;0.67;;
19396;SDS011;9834;48.076;11.878;2023-05-10T06:39:06;0.40;;;0.40;;
19396;SDS011;9834;48.076;11.878;2023-05-10T06:41:34;2.33;;;0.53;;
19396;SDS011;9834;48.076;11.878;2023-05-10T06:44:01;0.57;;;0.57;;
19396;SDS011;9834;48.076;11.878;2023-05-10T06:46:28;0.77;;;0.77;;
19396;SDS011;9834;48.076;11.878;2023-05-10T06:48:56;1.13;;;1.03;;
19396;SDS011;9834;48.076;11.878;2023-05-10T06:51:23;0.70;;;0.63;;
19396;SDS011;9834;48.076;11.878;2023-05-10T06:53:52;1.43;;;0.90;;
19396;SDS011;9834;48.076;11.878;2023-05-10T06:56:20;0.60;;;0.60;;
19396;SDS011;9834;48.076;11.878;2023-05-10T06:58:47;0.83;;;0.83;;
19396;SDS011;9834;48.076;11.878;2023-05-10T07:01:14;1.10;;;1.00;;
19396;SDS011;9834;48.076;11.878;2023-05-10T07:03:42;0.80;;;0.80;;
19396;SDS011;9834;48.076;11.878;2023-05-10T07:06:09;0.83;;;0.70;;
19396;SDS011;9834;48.076;11.878;2023-05-10T07:08:37;0.93;;;0.80;;
19396;SDS011;9834;48.076;11.878;2023-05-10T07:11:06;1.13;;;1.13;;
19396;SDS011;9834;48.076;11.878;2023-05-10T07:13:33;3.37;;;1.27;;
19396;SDS011;9834;48.076;11.878;2023-05-10T07:16:01;1.50;;;0.87;;
19396;SDS011;9834;48.076;11.878;2023-05-10T07:18:29;0.80;;;0.70;;
19396;SDS011;9834;48.076;11.878;2023-05-10T07:20:56;0.70;;;0.70;;
19396;SDS011;9834;48.076;11.878;2023-05-10T07:23:24;0.87;;;0.87;;
19396;SDS011;9834;48.076;11.878;2023-05-10T07:25:51;1.27;;;1.00;;
19396;SDS011;9834;48.076;11.878;2023-05-10T07:28:20;0.67;;;0.67;;
19396;SDS011;9834;48.076;11.878;2023-05-10T07:30:48;0.57;;;0.57;;
19396;SDS011;9834;48.076;11.878;2023-05-10T07:33:15;1.33;;;0.93;;
19396;SDS011;9834;48.076;11.878;2023-05-10T07:35:43;1.70;;;0.70;;
19396;SDS011;9834;48.076;11.878;2023-05-10T07:38:10;0.80;;;0.80;;
19396;SDS011;9834;48.076;11.878;2023-05-10T07:40:38;0.70;;;0.53;;
19396;SDS011;9834;48.076;11.878;2023-05-10T07:43:06;0.33;;;0.33;;
19396;SDS011;9834;48.076;11.878;2023-05-10T07:45:35;0.50;;;0.50;;
19396;SDS011;9834;48.076;11.878;2023-05-10T07:48:02;0.90;;;0.63;;
19396;SDS011;9834;48.076;11.878;2023-05-10T07:50:29;0.40;;;0.40;;
19396;SDS011;9834;48.076;11.878;2023-05-10T07:52:57;1.33;;;0.77;;
19396;SDS011;9834;48.076;11.878;2023-05-10T07:55:25;0.43;;;0.43;;
19396;SDS011;9834;48.076;11.878;2023-05-10T07:57:52;0.70;;;0.50;;
19396;SDS011;9834;48.076;11.878;2023-05-10T08:00:20;0.80;;;0.53;;
19396;SDS011;9834;48.076;11.878;2023-05-10T08:02:49;2.23;;;0.60;;
19396;SDS011;9834;48.076;11.878;2023-05-10T08:05:16;0.70;;;0.70;;
19396;SDS011;9834;48.076;11.878;2023-05-10T08:07:44;0.60;;;0.60;;
19396;SDS011;9834;48.076;11.878;2023-05-10T08:10:11;0.70;;;0.70;;
19396;SDS011;9834;48.076;11.878;2023-05-10T08:12:39;0.97;;;0.73;;
19396;SDS011;9834;48.076;11.878;2023-05-10T08:15:07;0.57;;;0.50;;
19396;SDS011;9834;48.076;11.878;2023-05-10T08:17:35;0.50;;;0.50;;
19396;SDS011;9834;48.076;11.878;2023-05-10T08:20:05;1.63;;;0.87;;
19396;SDS011;9834;48.076;11.878;2023-05-10T08:22:33;0.43;;;0.43;;
19396;SDS011;9834;48.076;11.878;2023-05-10T08:25:01;0.63;;;0.63;;
19396;SDS011;9834;48.076;11.878;2023-05-10T08:27:28;0.60;;;0.60;;
19396;SDS011;9834;48.076;11.878;2023-05-10T08:29:56;0.53;;;0.50;;
19396;SDS011;9834;48.076;11.878;2023-05-10T08:32:23;0.40;;;0.40;;
19396;SDS011;9834;48.076;11.878;2023-05-10T08:34:50;1.23;;;0.90;;
19396;SDS011;9834;48.076;11.878;2023-05-10T08:37:19;1.67;;;0.57;;
19396;SDS011;9834;48.076;11.878;2023-05-10T08:39:47;0.60;;;0.60;;
19396;SDS011;9834;48.076;11.878;2023-05-10T08:42:15;1.27;;;1.13;;
19396;SDS011;9834;48.076;11.878;2023-05-10T08:44:46;0.87;;;0.77;;
19396;SDS011;9834;48.076;11.878;2023-05-10T08:47:15;0.67;;;0.60;;
19396;SDS011;9834;48.076;11.878;2023-05-10T08:49:44;0.70;;;0.70;;
19396;SDS011;9834;48.076;11.878;2023-05-10T08:52:14;0.90;;;0.87;;
19396;SDS011;9834;48.076;11.878;2023-05-10T08:54:44;0.70;;;0.70;;
19396;SDS011;9834;48.076;11.878;2023-05-10T08:57:11;1.00;;;0.80;;
19396;SDS011;9834;48.076;11.878;2023-05-10T08:59:39;1.50;;;1.20;;
19396;SDS011;9834;48.076;11.878;2023-05-10T09:02:06;1.43;;;1.00;;
19396;SDS011;9834;48.076;11.878;2023-05-10T09:04:42;1.50;;;0.63;;
19396;SDS011;9834;48.076;11.878;2023-05-10T09:07:14;0.70;;;0.70;;
19396;SDS011;9834;48.076;11.878;2023-05-10T09:09:41;0.60;;;0.60;;
19396;SDS011;9834;48.076;11.878;2023-05-10T09:12:12;0.50;;;0.50;;
19396;SDS011;9834;48.076;11.878;2023-05-10T09:14:40;0.40;;;0.40;;
19396;SDS011;9834;48.076;11.878;2023-05-10T09:17:10;0.40;;;0.40;;
19396;SDS011;9834;48.076;11.878;2023-05-10T09:19:38;0.30;;;0.30;;
19396;SDS011;9834;48.076;11.878;2023-05-10T09:22:05;0.50;;;0.50;;
19396;SDS011;9834;48.076;11.878;2023-05-10T09:24:34;1.37;;;0.60;;
19396;SDS011;9834;48.076;11.878;2023-05-10T09:27:09;0.30;;;0.30;;
19396;SDS011;9834;48.076;11.878;2023-05-10T09:29:39;0.40;;;0.40;;
19396;SDS011;9834;48.076;11.878;2023-05-10T09:32:08;0.47;;;0.47;;
19396;SDS011;9834;48.076;11.878;2023-05-10T09:34:35;0.20;;;0.20;;
19396;SDS011;9834;48.076;11.878;2023-05-10T09:37:05;0.33;;;0.30;;
19396;SDS011;9834;48.076;11.878;2023-05-10T09:39:33;0.40;;;0.20;;
19396;SDS011;9834;48.076;11.878;2023-05-10T09:42:02;0.40;;;0.40;;
19396;SDS011;9834;48.076;11.878;2023-05-10T09:44:32;0.30;;;0.30;;
19396;SDS011;9834;48.076;11.878;2023-05-10T09:47:00;0.97;;;0.60;;
19396;SDS011;9834;48.076;11.878;2023-05-10T09:49:28;0.30;;;0.30;;
19396;SDS011;9834;48.076;11.878;2023-05-10T09:52:02;0.43;;;0.43;;
19396;SDS011;9834;48.076;11.878;2023-05-10T09:54:31;0.20;;;0.20;;
19396;SDS011;9834;48.076;11.878;2023-05-10T09:56:59;1.33;;;0.40;;
19396;SDS011;9834;48.076;11.878;2023-05-10T09:59:27;0.30;;;0.30;;
19396;SDS011;9834;48.076;11.878;2023-05-10T10:01:57;0.20;;;0.20;;
19396;SDS011;9834;48.076;11.878;2023-05-10T10:04:26;0.40;;;0.40;;
19396;SDS011;9834;48.076;11.878;2023-05-10T10:07:00;0.20;;;0.20;;
19396;SDS011;9834;48.076;11.878;2023-05-10T10:09:28;0.30;;;0.30;;
19396;SDS011;9834;48.076;11.878;2023-05-10T10:11:56;0.60;;;0.60;;
19396;SDS011;9834;48.076;11.878;2023-05-10T10:14:24;0.57;;;0.57;;
19396;SDS011;9834;48.076;11.878;2023-05-10T10:16:52;0.93;;;0.33;;
19396;SDS011;9834;48.076;11.878;2023-05-10T10:19:21;0.50;;;0.50;;
19396;SDS011;9834;48.076;11.878;2023-05-10T10:21:49;0.37;;;0.37;;
19396;SDS011;9834;48.076;11.878;2023-05-10T10:24:17;0.30;;;0.30;;
19396;SDS011;9834;48.076;11.878;2023-05-10T10:26:44;0.23;;;0.23;;
19396;SDS011;9834;48.076;11.878;2023-05-10T10:29:17;0.50;;;0.50;;
19396;SDS011;9834;48.076;11.878;2023-05-10T10:31:51;0.93;;;0.50;;
19396;SDS011;9834;48.076;11.878;2023-05-10T10:34:27;0.67;;;0.37;;
19396;SDS011;9834;48.076;11.878;2023-05-10T10:36:55;0.40;;;0.40;;
19396;SDS011;9834;48.076;11.878;2023-05-10T10:39:23;0.60;;;0.50;;
19396;SDS011;9834;48.076;11.878;2023-05-10T10:41:52;0.40;;;0.40;;
19396;SDS011;9834;48.076;11.878;2023-05-10T10:44:24;0.37;;;0.37;;
19396;SDS011;9834;48.076;11.878;2023-05-10T10:47:06;3.03;;;0.50;;
19396;SDS011;9834;48.076;11.878;2023-05-10T10:49:51;1.43;;;0.50;;
19396;SDS011;9834;48.076;11.878;2023-05-10T10:52:31;0.37;;;0.37;;
19396;SDS011;9834;48.076;11.878;2023-05-10T10:55:00;0.20;;;0.20;;
19396;SDS011;9834;48.076;11.878;2023-05-10T10:57:31;0.33;;;0.30;;
19396;SDS011;9834;48.076;11.878;2023-05-10T11:02:49;0.43;;;0.33;;
19396;SDS011;9834;48.076;11.878;2023-05-10T11:08:27;0.30;;;0.30;;
19396;SDS011;9834;48.076;11.878;2023-05-10T11:11:03;1.90;;;0.47;;
19396;SDS011;9834;48.076;11.878;2023-05-10T11:13:33;1.30;;;0.43;;
19396;SDS011;9834;48.076;11.878;2023-05-10T11:16:14;0.67;;;0.67;;
19396;SDS011;9834;48.076;11.878;2023-05-10T11:21:45;0.30;;;0.30;;
19396;SDS011;9834;48.076;11.878;2023-05-10T11:24:14;0.30;;;0.30;;
19396;SDS011;9834;48.076;11.878;2023-05-10T11:26:42;0.45;;;0.45;;
19396;SDS011;9834;48.076;11.878;2023-05-10T11:29:10;0.43;;;0.43;;
19396;SDS011;9834;48.076;11.878;2023-05-10T11:31:42;0.50;;;0.50;;
19396;SDS011;9834;48.076;11.878;2023-05-10T11:34:11;0.57;;;0.57;;
19396;SDS011;9834;48.076;11.878;2023-05-10T11:36:52;1.10;;;0.70;;
19396;SDS011;9834;48.076;11.878;2023-05-10T11:39:20;0.60;;;0.60;;
19396;SDS011;9834;48.076;11.878;2023-05-10T11:41:48;0.63;;;0.63;;
19396;SDS011;9834;48.076;11.878;2023-05-10T11:44:16;0.30;;;0.30;;
19396;SDS011;9834;48.076;11.878;2023-05-10T11:46:45;0.73;;;0.70;;
19396;SDS011;9834;48.076;11.878;2023-05-10T11:49:12;0.87;;;0.60;;
19396;SDS011;9834;48.076;11.878;2023-05-10T11:51:40;0.30;;;0.30;;
19396;SDS011;9834;48.076;11.878;2023-05-10T11:54:10;0.90;;;0.47;;
19396;SDS011;9834;48.076;11.878;2023-05-10T11:56:37;2.00;;;0.83;;
19396;SDS011;9834;48.076;11.878;2023-05-10T11:59:05;0.30;;;0.30;;
19396;SDS011;9834;48.076;11.878;2023-05-10T12:01:33;1.73;;;0.70;;
19396;SDS011;9834;48.076;11.878;2023-05-10T12:04:01;0.43;;;0.43;;
19396;SDS011;9834;48.076;11.878;2023-05-10T12:06:29;2.37;;;1.00;;
19396;SDS011;9834;48.076;11.878;2023-05-10T12:08:57;0.40;;;0.40;;
19396;SDS011;9834;48.076;11.878;2023-05-10T12:11:27;0.50;;;0.50;;
19396;SDS011;9834;48.076;11.878;2023-05-10T12:13:55;0.60;;;0.60;;
19396;SDS011;9834;48.076;11.878;2023-05-10T12:16:23;1.30;;;0.70;;
19396;SDS011;9834;48.076;11.878;2023-05-10T12:18:51;0.17;;;0.17;;
19396;SDS011;9834;48.076;11.878;2023-05-10T12:21:20;0.37;;;0.37;;
19396;SDS011;9834;48.076;11.878;2023-05-10T12:23:48;0.40;;;0.40;;
19396;SDS011;9834;48.076;11.878;2023-05-10T12:26:17;0.70;;;0.50;;
19396;SDS011;9834;48.076;11.878;2023-05-10T12:28:49;0.30;;;0.30;;
19396;SDS011;9834;48.076;11.878;2023-05-10T12:31:16;2.20;;;0.63;;
19396;SDS011;9834;48.076;11.878;2023-05-10T12:33:44;0.40;;;0.40;;
19396;SDS011;9834;48.076;11.878;2023-05-10T12:36:14;0.83;;;0.40;;
19396;SDS011;9834;48.076;11.878;2023-05-10T12:38:43;0.47;;;0.47;;
19396;SDS011;9834;48.076;11.878;2023-05-10T12:41:14;0.40;;;0.40;;
19396;SDS011;9834;48.076;11.878;2023-05-10T12:43:43;0.43;;;0.43;;
19396;SDS011;9834;48.076;11.878;2023-05-10T12:46:14;0.43;;;0.40;;
19396;SDS011;9834;48.076;11.878;2023-05-10T12:48:44;0.73;;;0.70;;
19396;SDS011;9834;48.076;11.878;2023-05-10T12:51:12;2.10;;;0.77;;
19396;SDS011;9834;48.076;11.878;2023-05-10T12:53:42;0.50;;;0.50;;
19396;SDS011;9834;48.076;11.878;2023-05-10T12:56:10;7.03;;;0.87;;
19396;SDS011;9834;48.076;11.878;2023-05-10T12:58:38;0.43;;;0.43;;
19396;SDS011;9834;48.076;11.878;2023-05-10T13:01:06;0.70;;;0.70;;
19396;SDS011;9834;48.076;11.878;2023-05-10T13:03:36;2.90;;;0.80;;
19396;SDS011;9834;48.076;11.878;2023-05-10T13:06:05;1.70;;;1.27;;
19396;SDS011;9834;48.076;11.878;2023-05-10T13:08:33;1.43;;;0.90;;
19396;SDS011;9834;48.076;11.878;2023-05-10T13:10:59;0.90;;;0.90;;
19396;SDS011;9834;48.076;11.878;2023-05-10T13:13:27;1.57;;;0.70;;
19396;SDS011;9834;48.076;11.878;2023-05-10T13:15:54;4.87;;;1.17;;
19396;SDS011;9834;48.076;11.878;2023-05-10T13:18:21;0.70;;;0.70;;
19396;SDS011;9834;48.076;11.878;2023-05-10T13:20:50;0.83;;;0.50;;
19396;SDS011;9834;48.076;11.878;2023-05-10T13:23:17;0.50;;;0.50;;
19396;SDS011;9834;48.076;11.878;2023-05-10T13:25:44;0.80;;;0.80;;
19396;SDS011;9834;48.076;11.878;2023-05-10T13:28:11;1.47;;;1.10;;
19396;SDS011;9834;48.076;11.878;2023-05-10T13:30:39;2.10;;;1.07;;
19396;SDS011;9834;48.076;11.878;2023-05-10T13:33:06;0.93;;;0.90;;
19396;SDS011;9834;48.076;11.878;2023-05-10T13:35:33;3.27;;;2.77;;
19396;SDS011;9834;48.076;11.878;2023-05-10T13:38:02;3.00;;;2.70;;
19396;SDS011;9834;48.076;11.878;2023-05-10T13:40:29;2.37;;;1.53;;
19396;SDS011;9834;48.076;11.878;2023-05-10T13:42:56;1.80;;;1.70;;
19396;SDS011;9834;48.076;11.878;2023-05-10T13:45:23;1.60;;;1.50;;
19396;SDS011;9834;48.076;11.878;2023-05-10T13:47:50;1.97;;;1.80;;
19396;SDS011;9834;48.076;11.878;2023-05-10T13:50:17;0.70;;;0.70;;
19396;SDS011;9834;48.076;11.878;2023-05-10T13:52:44;1.20;;;1.03;;
19396;SDS011;9834;48.076;11.878;2023-05-10T13:55:12;1.70;;;1.40;;
19396;SDS011;9834;48.076;11.878;2023-05-10T13:57:39;0.80;;;0.80;;
19396;SDS011;9834;48.076;11.878;2023-05-10T14:00:08;1.77;;;1.63;;
19396;SDS011;9834;48.076;11.878;2023-05-10T14:02:36;0.80;;;0.77;;
19396;SDS011;9834;48.076;11.878;2023-05-10T14:05:03;2.57;;;1.07;;
19396;SDS011;9834;48.076;11.878;2023-05-10T14:07:31;1.17;;;1.17;;
19396;SDS011;9834;48.076;11.878;2023-05-10T14:09:58;1.70;;;1.60;;
19396;SDS011;9834;48.076;11.878;2023-05-10T14:12:26;1.43;;;1.33;;
19396;SDS011;9834;48.076;11.878;2023-05-10T14:14:54;0.87;;;0.87;;
19396;SDS011;9834;48.076;11.878;2023-05-10T14:17:21;5.17;;;1.17;;
19396;SDS011;9834;48.076;11.878;2023-05-10T14:19:48;0.63;;;0.60;;
19396;SDS011;9834;48.076;11.878;2023-05-10T14:22:15;0.80;;;0.80;;
19396;SDS011;9834;48.076;11.878;2023-05-10T14:24:42;5.40;;;2.00;;
19396;SDS011;9834;48.076;11.878;2023-05-10T14:27:11;1.23;;;1.23;;
19396;SDS011;9834;48.076;11.878;2023-05-10T14:29:40;0.90;;;0.87;;
19396;SDS011;9834;48.076;11.878;2023-05-10T14:32:07;0.57;;;0.57;;
19396;SDS011;9834;48.076;11.878;2023-05-10T14:34:34;0.67;;;0.67;;
19396;SDS011;9834;48.076;11.878;2023-05-10T14:37:01;1.13;;;0.77;;
19396;SDS011;9834;48.076;11.878;2023-05-10T14:39:28;3.90;;;0.87;;
19396;SDS011;9834;48.076;11.878;2023-05-10T14:41:55;0.70;;;0.70;;
19396;SDS011;9834;48.076;11.878;2023-05-10T14:44:23;1.23;;;1.10;;
19396;SDS011;9834;48.076;11.878;2023-05-10T14:46:52;0.50;;;0.50;;
19396;SDS011;9834;48.076;11.878;2023-05-10T14:49:20;2.30;;;0.87;;
19396;SDS011;9834;48.076;11.878;2023-05-10T14:51:49;2.17;;;1.03;;
19396;SDS011;9834;48.076;11.878;2023-05-10T14:54:18;0.60;;;0.60;;
19396;SDS011;9834;48.076;11.878;2023-05-10T14:56:46;0.60;;;0.60;;
19396;SDS011;9834;48.076;11.878;2023-05-10T14:59:15;2.57;;;0.93;;
19396;SDS011;9834;48.076;11.878;2023-05-10T15:01:42;2.30;;;2.20;;
19396;SDS011;9834;48.076;11.878;2023-05-10T15:04:11;0.73;;;0.73;;
19396;SDS011;9834;48.076;11.878;2023-05-10T15:06:41;1.13;;;0.80;;
19396;SDS011;9834;48.076;11.878;2023-05-10T15:09:08;2.33;;;2.13;;
19396;SDS011;9834;48.076;11.878;2023-05-10T15:11:35;1.90;;;1.80;;
19396;SDS011;9834;48.076;11.878;2023-05-10T15:14:03;1.73;;;1.63;;
19396;SDS011;9834;48.076;11.878;2023-05-10T15:16:31;2.47;;;2.27;;